sensor_id;sensor_type;location;lat;lon;timestamp;pressure;altitude;pressure_sealevel;temperature;humidity
39449;BME280;25151;45.566;9.382;2023-07-08T00:01:37;100282.59;;;27.11;53.68
39449;BME280;25151;45.566;9.382;2023-07-08T00:04:07;100281.34;;;27.12;53.32
39449;BME280;25151;45.566;9.382;2023-07-08T00:06:38;100291.88;;;27.11;53.64
39449;BME280;25151;45.566;9.382;2023-07-08T00:09:13;100282.59;;;27.11;53.63
39449;BME280;25151;45.566;9.382;2023-07-08T00:11:46;100275.38;;;27.10;53.43
39449;BME280;25151;45.566;9.382;2023-07-08T00:14:18;100281.66;;;27.14;53.30
39449;BME280;25151;45.566;9.382;2023-07-08T00:16:51;100276.94;;;27.11;53.74
39449;BME280;25151;45.566;9.382;2023-07-08T00:19:23;100290.91;;;27.14;53.68
39449;BME280;25151;45.566;9.382;2023-07-08T00:21:58;100273.81;;;27.09;53.39
39449;BME280;25151;45.566;9.382;2023-07-08T00:24:29;100285.25;;;27.14;53.51
39449;BME280;25151;45.566;9.382;2023-07-08T00:26:59;100289.81;;;27.12;53.51
39449;BME280;25151;45.566;9.382;2023-07-08T00:29:41;100288.28;;;27.11;53.40
39449;BME280;25151;45.566;9.382;2023-07-08T00:32:15;100281.03;;;27.10;53.35
39449;BME280;25151;45.566;9.382;2023-07-08T00:34:49;100287.00;;;27.12;53.70
39449;BME280;25151;45.566;9.382;2023-07-08T00:37:27;100284.31;;;27.08;53.47
39449;BME280;25151;45.566;9.382;2023-07-08T00:40:01;100284.31;;;27.08;53.37
39449;BME280;25151;45.566;9.382;2023-07-08T00:42:34;100288.28;;;27.11;53.97
39449;BME280;25151;45.566;9.382;2023-07-08T00:45:20;100284.66;;;27.10;53.89
39449;BME280;25151;45.566;9.382;2023-07-08T00:47:54;100293.31;;;27.07;53.52
39449;BME280;25151;45.566;9.382;2023-07-08T00:50:28;100296.44;;;27.09;53.45
39449;BME280;25151;45.566;9.382;2023-07-08T00:53:36;100297.84;;;27.13;53.89
39449;BME280;25151;45.566;9.382;2023-07-08T00:58:55;100274.28;;;27.07;53.59
39449;BME280;25151;45.566;9.382;2023-07-08T01:01:26;100278.88;;;27.05;54.09
39449;BME280;25151;45.566;9.382;2023-07-08T01:04:22;100297.53;;;27.11;53.99
39449;BME280;25151;45.566;9.382;2023-07-08T01:06:56;100294.72;;;27.11;53.76
39449;BME280;25151;45.566;9.382;2023-07-08T01:09:37;100293.94;;;27.11;53.61
39449;BME280;25151;45.566;9.382;2023-07-08T01:12:09;100288.44;;;27.07;53.73
39449;BME280;25151;45.566;9.382;2023-07-08T01:14:41;100284.03;;;27.06;53.65
39449;BME280;25151;45.566;9.382;2023-07-08T01:17:12;100304.94;;;27.09;54.11
39449;BME280;25151;45.566;9.382;2023-07-08T01:19:45;100307.47;;;27.07;53.93
39449;BME280;25151;45.566;9.382;2023-07-08T01:22:19;100310.13;;;27.10;54.17
39449;BME280;25151;45.566;9.382;2023-07-08T01:24:46;100297.59;;;27.02;53.88
39449;BME280;25151;45.566;9.382;2023-07-08T01:27:18;100294.25;;;27.04;54.02
39449;BME280;25151;45.566;9.382;2023-07-08T01:29:48;100307.31;;;27.10;54.02
39449;BME280;25151;45.566;9.382;2023-07-08T01:32:19;100302.13;;;27.09;54.12
39449;BME280;25151;45.566;9.382;2023-07-08T01:34:50;100292.34;;;27.10;53.98
39449;BME280;25151;45.566;9.382;2023-07-08T01:37:50;100288.44;;;27.07;53.97
39449;BME280;25151;45.566;9.382;2023-07-08T01:43:05;100270.06;;;27.03;54.12
39449;BME280;25151;45.566;9.382;2023-07-08T01:45:38;100270.06;;;27.03;54.19
39449;BME280;25151;45.566;9.382;2023-07-08T01:48:14;100257.97;;;27.02;53.97
39449;BME280;25151;45.566;9.382;2023-07-08T01:50:51;100256.41;;;27.01;54.08
39449;BME280;25151;45.566;9.382;2023-07-08T01:53:32;100246.47;;;27.06;53.83
39449;BME280;25151;45.566;9.382;2023-07-08T01:56:02;100244.59;;;27.03;53.92
39449;BME280;25151;45.566;9.382;2023-07-08T01:58:35;100250.84;;;27.07;53.77
39449;BME280;25151;45.566;9.382;2023-07-08T02:01:10;100256.50;;;27.07;53.77
39449;BME280;25151;45.566;9.382;2023-07-08T02:03:43;100257.19;;;27.02;54.12
39449;BME280;25151;45.566;9.382;2023-07-08T02:06:17;100243.03;;;27.02;54.26
39449;BME280;25151;45.566;9.382;2023-07-08T02:08:47;100230.63;;;26.99;53.85
39449;BME280;25151;45.566;9.382;2023-07-08T02:11:17;100235.16;;;27.06;53.91
39449;BME280;25151;45.566;9.382;2023-07-08T02:13:46;100225.38;;;27.07;53.82
39449;BME280;25151;45.566;9.382;2023-07-08T02:16:18;100216.78;;;27.01;53.81
39449;BME280;25151;45.566;9.382;2023-07-08T02:18:47;100223.81;;;27.06;54.27
39449;BME280;25151;45.566;9.382;2023-07-08T02:21:16;100216.47;;;26.99;54.03
39449;BME280;25151;45.566;9.382;2023-07-08T02:23:48;100229.47;;;27.06;54.30
39449;BME280;25151;45.566;9.382;2023-07-08T02:26:20;100212.59;;;26.96;54.22
39449;BME280;25151;45.566;9.382;2023-07-08T02:28:52;100240.03;;;27.05;54.34
39449;BME280;25151;45.566;9.382;2023-07-08T02:31:21;100237.06;;;27.00;54.04
39449;BME280;25151;45.566;9.382;2023-07-08T02:33:53;100252.50;;;26.98;54.02
39449;BME280;25151;45.566;9.382;2023-07-08T02:36:26;100258.47;;;27.01;54.31
39449;BME280;25151;45.566;9.382;2023-07-08T02:38:58;100258.47;;;27.01;54.26
39449;BME280;25151;45.566;9.382;2023-07-08T02:41:32;100255.63;;;27.01;53.77
39449;BME280;25151;45.566;9.382;2023-07-08T02:44:03;100247.63;;;26.99;54.19
39449;BME280;25151;45.566;9.382;2023-07-08T02:46:35;100235.50;;;26.98;54.24
39449;BME280;25151;45.566;9.382;2023-07-08T02:49:15;100238.66;;;27.01;54.20
39449;BME280;25151;45.566;9.382;2023-07-08T02:51:42;100231.41;;;27.00;54.33
39449;BME280;25151;45.566;9.382;2023-07-08T02:54:12;100240.81;;;27.06;53.79
39449;BME280;25151;45.566;9.382;2023-07-08T02:56:44;100244.31;;;27.01;53.77
39449;BME280;25151;45.566;9.382;2023-07-08T02:59:17;100242.25;;;27.01;54.08
39449;BME280;25151;45.566;9.382;2023-07-08T03:01:50;100239.63;;;26.97;53.95
39449;BME280;25151;45.566;9.382;2023-07-08T03:04:19;100245.69;;;27.05;53.83
39449;BME280;25151;45.566;9.382;2023-07-08T03:06:51;100239.91;;;27.00;54.38
39449;BME280;25151;45.566;9.382;2023-07-08T03:09:20;100254.66;;;27.04;53.86
39449;BME280;25151;45.566;9.382;2023-07-08T03:11:57;100253.28;;;26.99;53.83
39449;BME280;25151;45.566;9.382;2023-07-08T03:14:32;100259.72;;;27.00;54.23
39449;BME280;25151;45.566;9.382;2023-07-08T03:17:04;100263.63;;;27.02;53.96
39449;BME280;25151;45.566;9.382;2023-07-08T03:19:37;100265.38;;;27.00;53.91
39449;BME280;25151;45.566;9.382;2023-07-08T03:22:04;100268.19;;;27.00;54.07
39449;BME280;25151;45.566;9.382;2023-07-08T03:24:36;100295.34;;;27.06;53.84
39449;BME280;25151;45.566;9.382;2023-07-08T03:27:13;100276.69;;;27.00;53.90
39449;BME280;25151;45.566;9.382;2023-07-08T03:29:46;100278.28;;;27.01;54.29
39449;BME280;25151;45.566;9.382;2023-07-08T03:32:21;100279.00;;;26.86;53.71
39449;BME280;25151;45.566;9.382;2023-07-08T03:34:51;100287.00;;;26.64;53.35
39449;BME280;25151;45.566;9.382;2023-07-08T03:37:23;100286.28;;;26.54;52.78
39449;BME280;25151;45.566;9.382;2023-07-08T03:39:50;100277.38;;;26.46;52.29
39449;BME280;25151;45.566;9.382;2023-07-08T03:42:19;100269.03;;;26.43;52.26
39449;BME280;25151;45.566;9.382;2023-07-08T03:44:51;100258.84;;;26.36;51.64
39449;BME280;25151;45.566;9.382;2023-07-08T03:47:24;100260.59;;;26.34;51.19
39449;BME280;25151;45.566;9.382;2023-07-08T03:49:59;100265.75;;;26.35;51.26
39449;BME280;25151;45.566;9.382;2023-07-08T03:52:26;100278.34;;;26.34;51.09
39449;BME280;25151;45.566;9.382;2023-07-08T03:54:56;100261.38;;;26.34;50.98
39449;BME280;25151;45.566;9.382;2023-07-08T03:57:23;100254.81;;;26.28;50.57
39449;BME280;25151;45.566;9.382;2023-07-08T03:59:52;100246.81;;;26.27;50.49
39449;BME280;25151;45.566;9.382;2023-07-08T04:02:19;100248.25;;;26.22;50.40
39449;BME280;25151;45.566;9.382;2023-07-08T04:04:48;100250.59;;;26.23;50.21
39449;BME280;25151;45.566;9.382;2023-07-08T04:07:23;100259.56;;;26.22;49.67
39449;BME280;25151;45.566;9.382;2023-07-08T04:09:53;100256.41;;;26.20;50.01
39449;BME280;25151;45.566;9.382;2023-07-08T04:12:26;100255.28;;;26.27;49.54
39449;BME280;25151;45.566;9.382;2023-07-08T04:14:56;100248.25;;;26.22;49.63
39449;BME280;25151;45.566;9.382;2023-07-08T04:17:28;100233.19;;;26.16;49.53
39449;BME280;25151;45.566;9.382;2023-07-08T04:19:58;100227.44;;;26.10;49.14
39449;BME280;25151;45.566;9.382;2023-07-08T04:22:34;100224.44;;;26.14;48.94
39449;BME280;25151;45.566;9.382;2023-07-08T04:25:10;100223.44;;;26.17;49.50
39449;BME280;25151;45.566;9.382;2023-07-08T04:27:40;100230.31;;;26.25;49.58
39449;BME280;25151;45.566;9.382;2023-07-08T04:30:11;100216.25;;;26.16;49.24
39449;BME280;25151;45.566;9.382;2023-07-08T04:32:44;100218.16;;;26.10;49.03
39449;BME280;25151;45.566;9.382;2023-07-08T04:35:14;100214.41;;;26.04;48.91
39449;BME280;25151;45.566;9.382;2023-07-08T04:37:45;100213.03;;;25.99;48.92
39449;BME280;25151;45.566;9.382;2023-07-08T04:40:17;100220.69;;;26.08;48.84
39449;BME280;25151;45.566;9.382;2023-07-08T04:42:45;100208.47;;;26.02;48.49
39449;BME280;25151;45.566;9.382;2023-07-08T04:45:16;100205.28;;;26.09;48.58
39449;BME280;25151;45.566;9.382;2023-07-08T04:47:46;100214.38;;;26.13;48.40
39449;BME280;25151;45.566;9.382;2023-07-08T04:50:20;100205.28;;;26.09;49.00
39449;BME280;25151;45.566;9.382;2023-07-08T04:52:52;100208.09;;;26.09;48.33
39449;BME280;25151;45.566;9.382;2023-07-08T04:55:24;100201.56;;;26.03;48.47
39449;BME280;25151;45.566;9.382;2023-07-08T04:57:51;100191.69;;;25.98;48.27
39449;BME280;25151;45.566;9.382;2023-07-08T05:00:24;100192.16;;;25.96;48.39
39449;BME280;25151;45.566;9.382;2023-07-08T05:02:54;100201.91;;;25.95;48.79
39449;BME280;25151;45.566;9.382;2023-07-08T05:05:27;100199.03;;;26.05;48.93
39449;BME280;25151;45.566;9.382;2023-07-08T05:08:00;100199.03;;;26.05;48.41
39449;BME280;25151;45.566;9.382;2023-07-08T05:10:30;100193.38;;;26.05;48.22
39449;BME280;25151;45.566;9.382;2023-07-08T05:12:59;100197.19;;;26.02;48.56
39449;BME280;25151;45.566;9.382;2023-07-08T05:15:26;100198.31;;;25.95;48.27
39449;BME280;25151;45.566;9.382;2023-07-08T05:17:55;100205.22;;;25.94;48.78
39449;BME280;25151;45.566;9.382;2023-07-08T05:20:25;100193.53;;;26.01;48.27
39449;BME280;25151;45.566;9.382;2023-07-08T05:22:55;100210.22;;;25.99;48.01
39449;BME280;25151;45.566;9.382;2023-07-08T05:25:21;100202.84;;;25.92;48.15
39449;BME280;25151;45.566;9.382;2023-07-08T05:27:54;100210.69;;;25.97;48.57
39449;BME280;25151;45.566;9.382;2023-07-08T05:30:26;100209.72;;;26.00;48.30
39449;BME280;25151;45.566;9.382;2023-07-08T05:32:58;100201.16;;;25.86;48.22
39449;BME280;25151;45.566;9.382;2023-07-08T05:35:28;100211.03;;;25.90;48.16
39449;BME280;25151;45.566;9.382;2023-07-08T05:37:55;100211.94;;;25.96;48.50
39449;BME280;25151;45.566;9.382;2023-07-08T05:40:27;100220.69;;;26.08;48.10
39449;BME280;25151;45.566;9.382;2023-07-08T05:42:56;100227.38;;;26.19;47.84
39449;BME280;25151;45.566;9.382;2023-07-08T05:45:22;100229.38;;;26.28;47.83
39449;BME280;25151;45.566;9.382;2023-07-08T05:47:49;100230.91;;;26.29;47.97
39449;BME280;25151;45.566;9.382;2023-07-08T05:50:16;100237.22;;;26.33;47.97
39449;BME280;25151;45.566;9.382;2023-07-08T05:52:43;100236.22;;;26.36;48.08
39449;BME280;25151;45.566;9.382;2023-07-08T05:55:13;100243.47;;;26.37;48.32
39449;BME280;25151;45.566;9.382;2023-07-08T05:57:45;100238.41;;;26.41;48.40
39449;BME280;25151;45.566;9.382;2023-07-08T06:00:17;100240.91;;;26.48;48.63
39449;BME280;25151;45.566;9.382;2023-07-08T06:03:04;100233.41;;;26.45;48.93
39449;BME280;25151;45.566;9.382;2023-07-08T06:05:30;100239.94;;;26.52;49.01
39449;BME280;25151;45.566;9.382;2023-07-08T06:07:58;100242.47;;;26.50;48.96
39449;BME280;25151;45.566;9.382;2023-07-08T06:10:28;100240.25;;;26.54;49.23
39449;BME280;25151;45.566;9.382;2023-07-08T06:12:55;100256.25;;;26.57;49.64
39449;BME280;25151;45.566;9.382;2023-07-08T06:15:25;100244.81;;;26.51;49.59
39449;BME280;25151;45.566;9.382;2023-07-08T06:17:54;100247.34;;;26.49;49.77
39449;BME280;25151;45.566;9.382;2023-07-08T06:20:24;100239.66;;;26.50;49.81
39449;BME280;25151;45.566;9.382;2023-07-08T06:22:53;100252.03;;;26.52;50.16
39449;BME280;25151;45.566;9.382;2023-07-08T06:25:43;100245.13;;;26.53;50.23
39449;BME280;25151;45.566;9.382;2023-07-08T06:28:09;100262.09;;;26.53;50.56
39449;BME280;25151;45.566;9.382;2023-07-08T06:34:01;100251.44;;;26.48;50.70
39449;BME280;25151;45.566;9.382;2023-07-08T06:36:28;100249.97;;;26.53;50.95
39449;BME280;25151;45.566;9.382;2023-07-08T06:38:58;100264.78;;;26.47;50.76
39449;BME280;25151;45.566;9.382;2023-07-08T06:41:25;100251.13;;;26.46;51.11
39449;BME280;25151;45.566;9.382;2023-07-08T06:43:58;100268.53;;;26.54;51.18
39449;BME280;25151;45.566;9.382;2023-07-08T06:46:24;100260.22;;;26.50;51.23
39449;BME280;25151;45.566;9.382;2023-07-08T06:49:00;100261.00;;;26.51;51.33
39449;BME280;25151;45.566;9.382;2023-07-08T06:51:27;100258.94;;;26.51;51.48
39449;BME280;25151;45.566;9.382;2023-07-08T06:54:01;100267.56;;;26.57;51.36
39449;BME280;25151;45.566;9.382;2023-07-08T06:56:41;100264.25;;;26.58;51.46
39449;BME280;25151;45.566;9.382;2023-07-08T06:59:13;100252.78;;;26.62;51.51
39449;BME280;25151;45.566;9.382;2023-07-08T07:01:45;100256.66;;;26.64;51.11
39449;BME280;25151;45.566;9.382;2023-07-08T07:04:17;100253.84;;;26.64;51.34
39449;BME280;25151;45.566;9.382;2023-07-08T07:06:50;100256.84;;;26.61;51.00
39449;BME280;25151;45.566;9.382;2023-07-08T07:09:19;100266.72;;;26.65;51.41
39449;BME280;25151;45.566;9.382;2023-07-08T07:11:49;100264.84;;;26.62;51.03
39449;BME280;25151;45.566;9.382;2023-07-08T07:14:16;100265.16;;;26.64;51.09
39449;BME280;25151;45.566;9.382;2023-07-08T07:16:43;100263.72;;;26.69;51.24
39449;BME280;25151;45.566;9.382;2023-07-08T07:19:12;100259.63;;;26.70;51.22
39449;BME280;25151;45.566;9.382;2023-07-08T07:21:41;100256.19;;;26.66;51.40
39449;BME280;25151;45.566;9.382;2023-07-08T07:24:15;100266.72;;;26.65;51.47
39449;BME280;25151;45.566;9.382;2023-07-08T07:26:41;100276.09;;;26.71;51.13
39449;BME280;25151;45.566;9.382;2023-07-08T07:29:10;100277.56;;;26.67;51.55
39449;BME280;25151;45.566;9.382;2023-07-08T07:31:40;100277.56;;;26.67;51.51
39449;BME280;25151;45.566;9.382;2023-07-08T07:34:22;100287.75;;;26.73;51.68
39449;BME280;25151;45.566;9.382;2023-07-08T07:36:55;100276.59;;;26.70;51.56
39449;BME280;25151;45.566;9.382;2023-07-08T07:39:21;100286.47;;;26.75;51.70
39449;BME280;25151;45.566;9.382;2023-07-08T07:41:48;100282.25;;;26.70;51.74
39449;BME280;25151;45.566;9.382;2023-07-08T07:44:20;100278.16;;;26.71;51.52
39449;BME280;25151;45.566;9.382;2023-07-08T07:46:53;100275.31;;;26.71;51.95
39449;BME280;25151;45.566;9.382;2023-07-08T07:49:20;100295.25;;;26.77;52.05
39449;BME280;25151;45.566;9.382;2023-07-08T07:51:49;100291.63;;;26.76;51.80
39449;BME280;25151;45.566;9.382;2023-07-08T07:54:18;100286.28;;;26.78;51.46
39449;BME280;25151;45.566;9.382;2023-07-08T08:00:07;100276.09;;;26.71;51.50
39449;BME280;25151;45.566;9.382;2023-07-08T08:02:38;100285.03;;;26.79;51.96
39449;BME280;25151;45.566;9.382;2023-07-08T08:05:04;100285.78;;;26.80;52.08
39449;BME280;25151;45.566;9.382;2023-07-08T08:07:36;100279.53;;;26.76;51.99
39449;BME280;25151;45.566;9.382;2023-07-08T08:10:04;100284.41;;;26.75;51.96
39449;BME280;25151;45.566;9.382;2023-07-08T08:12:36;100286.56;;;26.80;51.95
39449;BME280;25151;45.566;9.382;2023-07-08T08:15:03;100274.66;;;26.76;52.11
39449;BME280;25151;45.566;9.382;2023-07-08T08:17:30;100285.03;;;26.79;51.76
39449;BME280;25151;45.566;9.382;2023-07-08T08:20:03;100283.47;;;26.78;52.00
39449;BME280;25151;45.566;9.382;2023-07-08T08:22:33;100280.31;;;26.76;52.29
39449;BME280;25151;45.566;9.382;2023-07-08T08:25:02;100283.47;;;26.78;52.05
39449;BME280;25151;45.566;9.382;2023-07-08T08:27:34;100293.31;;;26.83;52.15
39449;BME280;25151;45.566;9.382;2023-07-08T08:30:02;100294.09;;;26.83;52.24
39449;BME280;25151;45.566;9.382;2023-07-08T08:32:28;100287.19;;;26.84;52.10
39449;BME280;25151;45.566;9.382;2023-07-08T08:35:04;100289.72;;;26.82;52.05
39449;BME280;25151;45.566;9.382;2023-07-08T08:37:33;100280.91;;;26.80;52.00
39449;BME280;25151;45.566;9.382;2023-07-08T08:40:11;100294.41;;;26.85;52.29
39449;BME280;25151;45.566;9.382;2023-07-08T08:42:44;100278.09;;;26.80;52.26
39449;BME280;25151;45.566;9.382;2023-07-08T08:45:36;100302.41;;;26.87;51.91
39449;BME280;25151;45.566;9.382;2023-07-08T08:52:05;100283.47;;;26.78;52.48
39449;BME280;25151;45.566;9.382;2023-07-08T08:54:32;100286.56;;;26.80;51.80
39449;BME280;25151;45.566;9.382;2023-07-08T08:57:12;100293.16;;;26.86;52.14
39449;BME280;25151;45.566;9.382;2023-07-08T08:59:45;100300.38;;;26.87;52.18
39449;BME280;25151;45.566;9.382;2023-07-08T09:12:20;100309.16;;;26.89;52.26
39449;BME280;25151;45.566;9.382;2023-07-08T09:15:15;100292.84;;;26.84;52.29
39449;BME280;25151;45.566;9.382;2023-07-08T09:21:28;100300.38;;;26.87;52.28
39449;BME280;25151;45.566;9.382;2023-07-08T09:27:19;100299.09;;;26.88;52.26
39449;BME280;25151;45.566;9.382;2023-07-08T09:29:46;100300.06;;;26.85;52.38
39449;BME280;25151;45.566;9.382;2023-07-08T09:32:24;100299.09;;;26.88;52.41
39449;BME280;25151;45.566;9.382;2023-07-08T09:38:34;100304.28;;;26.90;52.34
39449;BME280;25151;45.566;9.382;2023-07-08T09:44:31;100299.09;;;26.88;52.68
39449;BME280;25151;45.566;9.382;2023-07-08T09:51:05;100286.53;;;26.89;52.63
39449;BME280;25151;45.566;9.382;2023-07-08T09:53:35;100291.69;;;26.91;52.29
39449;BME280;25151;45.566;9.382;2023-07-08T09:59:36;100286.81;;;26.91;52.41
39449;BME280;25151;45.566;9.382;2023-07-08T10:02:52;100296.22;;;26.97;52.69
39449;BME280;25151;45.566;9.382;2023-07-08T10:08:44;100295.63;;;26.93;52.60
39449;BME280;25151;45.566;9.382;2023-07-08T10:14:11;100299.03;;;26.97;53.06
39449;BME280;25151;45.566;9.382;2023-07-08T10:17:19;100288.69;;;26.94;53.09
39449;BME280;25151;45.566;9.382;2023-07-08T10:23:21;100286.75;;;27.01;52.90
39449;BME280;25151;45.566;9.382;2023-07-08T10:30:16;100283.94;;;27.01;53.15
39449;BME280;25151;45.566;9.382;2023-07-08T10:38:40;100275.72;;;27.03;53.01
39449;BME280;25151;45.566;9.382;2023-07-08T10:51:32;100269.28;;;27.02;53.29
39449;BME280;25151;45.566;9.382;2023-07-08T11:16:47;100247.25;;;27.06;53.57
39449;BME280;25151;45.566;9.382;2023-07-08T11:22:56;100242.34;;;27.07;53.81
39449;BME280;25151;45.566;9.382;2023-07-08T11:32:33;100252.72;;;27.10;54.28
39449;BME280;25151;45.566;9.382;2023-07-08T11:35:05;100250.19;;;27.12;54.24
39449;BME280;25151;45.566;9.382;2023-07-08T11:37:37;100235.72;;;27.10;54.08
39449;BME280;25151;45.566;9.382;2023-07-08T11:40:07;100240.75;;;27.15;54.18
39449;BME280;25151;45.566;9.382;2023-07-08T11:46:03;100221.91;;;27.12;54.13
39449;BME280;25151;45.566;9.382;2023-07-08T11:51:58;100210.56;;;27.12;54.18
39449;BME280;25151;45.566;9.382;2023-07-08T11:55:12;100226.41;;;27.18;54.30
39449;BME280;25151;45.566;9.382;2023-07-08T12:01:45;100208.56;;;27.12;54.52
39449;BME280;25151;45.566;9.382;2023-07-08T12:05:15;100223.06;;;27.20;54.45
39449;BME280;25151;45.566;9.382;2023-07-08T12:07:46;100217.41;;;27.20;54.45
39449;BME280;25151;45.566;9.382;2023-07-08T12:10:45;100205.50;;;27.16;54.40
39449;BME280;25151;45.566;9.382;2023-07-08T12:16:52;100203.94;;;27.15;54.69
39449;BME280;25151;45.566;9.382;2023-07-08T12:19:27;100200.16;;;27.18;54.62
39449;BME280;25151;45.566;9.382;2023-07-08T12:22:15;100199.84;;;27.16;54.74
39449;BME280;25151;45.566;9.382;2023-07-08T12:28:06;100192.16;;;27.16;54.24
39449;BME280;25151;45.566;9.382;2023-07-08T12:30:37;100197.91;;;27.22;54.57
39449;BME280;25151;45.566;9.382;2023-07-08T12:33:14;100197.91;;;27.22;54.38
39449;BME280;25151;45.566;9.382;2023-07-08T12:39:10;100193.22;;;27.19;54.43
39449;BME280;25151;45.566;9.382;2023-07-08T12:41:38;100194.78;;;27.20;54.63
39449;BME280;25151;45.566;9.382;2023-07-08T12:44:20;100185.03;;;27.21;54.68
39449;BME280;25151;45.566;9.382;2023-07-08T12:50:31;100179.38;;;27.21;54.45
39449;BME280;25151;45.566;9.382;2023-07-08T12:53:11;100179.38;;;27.21;54.85
39449;BME280;25151;45.566;9.382;2023-07-08T12:55:46;100177.78;;;27.20;54.50
39449;BME280;25151;45.566;9.382;2023-07-08T12:58:47;100183.06;;;27.27;54.52
39449;BME280;25151;45.566;9.382;2023-07-08T13:04:40;100171.94;;;27.24;54.89
39449;BME280;25151;45.566;9.382;2023-07-08T13:07:09;100183.38;;;27.29;54.48
39449;BME280;25151;45.566;9.382;2023-07-08T13:20:54;100165.03;;;27.25;54.52
39449;BME280;25151;45.566;9.382;2023-07-08T13:23:22;100171.53;;;27.31;54.97
39449;BME280;25151;45.566;9.382;2023-07-08T13:25:54;100165.88;;;27.31;54.88
39449;BME280;25151;45.566;9.382;2023-07-08T13:28:35;100161.69;;;27.26;54.86
39449;BME280;25151;45.566;9.382;2023-07-08T13:31:34;100157.09;;;27.29;54.78
39449;BME280;25151;45.566;9.382;2023-07-08T13:37:46;100150.66;;;27.28;54.87
39449;BME280;25151;45.566;9.382;2023-07-08T13:43:40;100144.50;;;27.30;54.59
39449;BME280;25151;45.566;9.382;2023-07-08T13:49:44;100134.75;;;27.31;54.47
39449;BME280;25151;45.566;9.382;2023-07-08T13:59:49;100124.69;;;27.30;54.27
39449;BME280;25151;45.566;9.382;2023-07-08T14:02:25;100127.78;;;27.32;54.44
39449;BME280;25151;45.566;9.382;2023-07-08T14:04:56;100126.25;;;27.31;54.64
39449;BME280;25151;45.566;9.382;2023-07-08T14:07:44;100123.91;;;27.29;54.81
39449;BME280;25151;45.566;9.382;2023-07-08T14:13:33;100124.50;;;27.33;54.41
39449;BME280;25151;45.566;9.382;2023-07-08T14:16:05;100118.25;;;27.29;54.47
39449;BME280;25151;45.566;9.382;2023-07-08T14:22:19;100130.94;;;27.34;54.84
39449;BME280;25151;45.566;9.382;2023-07-08T14:24:53;100120.56;;;27.31;54.68
39449;BME280;25151;45.566;9.382;2023-07-08T14:27:34;100127.59;;;27.35;54.41
39449;BME280;25151;45.566;9.382;2023-07-08T14:30:08;100128.88;;;27.34;54.76
39449;BME280;25151;45.566;9.382;2023-07-08T14:32:41;100110.53;;;27.30;54.74
39449;BME280;25151;45.566;9.382;2023-07-08T14:35:30;100124.50;;;27.33;54.23
39449;BME280;25151;45.566;9.382;2023-07-08T14:41:37;100109.75;;;27.29;54.38
39449;BME280;25151;45.566;9.382;2023-07-08T14:44:14;100095.28;;;27.27;54.31
39449;BME280;25151;45.566;9.382;2023-07-08T14:47:18;100108.47;;;27.30;54.48
39449;BME280;25151;45.566;9.382;2023-07-08T14:53:18;100095.59;;;27.29;54.48
39449;BME280;25151;45.566;9.382;2023-07-08T14:55:48;100096.38;;;27.30;54.18
39449;BME280;25151;45.566;9.382;2023-07-08T15:01:37;100104.69;;;27.33;54.22
39449;BME280;25151;45.566;9.382;2023-07-08T15:04:41;100110.34;;;27.33;54.25
39449;BME280;25151;45.566;9.382;2023-07-08T15:07:16;100104.09;;;27.29;54.55
39449;BME280;25151;45.566;9.382;2023-07-08T15:10:01;100115.22;;;27.33;54.41
39449;BME280;25151;45.566;9.382;2023-07-08T15:12:28;100105.38;;;27.28;54.45
39449;BME280;25151;45.566;9.382;2023-07-08T15:14:55;100113.94;;;27.34;54.37
39449;BME280;25151;45.566;9.382;2023-07-08T15:17:26;100086.34;;;27.29;54.11
39449;BME280;25151;45.566;9.382;2023-07-08T15:19:52;100083.97;;;27.27;53.93
39449;BME280;25151;45.566;9.382;2023-07-08T15:22:23;100088.38;;;27.28;54.36
39449;BME280;25151;45.566;9.382;2023-07-08T15:24:50;100096.19;;;27.33;53.86
39449;BME280;25151;45.566;9.382;2023-07-08T15:27:19;100087.56;;;27.28;54.14
39449;BME280;25151;45.566;9.382;2023-07-08T15:29:47;100089.16;;;27.29;53.87
39449;BME280;25151;45.566;9.382;2023-07-08T15:35:53;100079.59;;;27.26;53.86
39449;BME280;25151;45.566;9.382;2023-07-08T15:38:23;100069.81;;;27.27;53.95
39449;BME280;25151;45.566;9.382;2023-07-08T15:40:50;100071.88;;;27.27;53.81
39449;BME280;25151;45.566;9.382;2023-07-08T15:43:23;100062.09;;;27.28;53.98
39449;BME280;25151;45.566;9.382;2023-07-08T15:49:19;100061.31;;;27.27;54.30
39449;BME280;25151;45.566;9.382;2023-07-08T15:52:20;100055.38;;;27.25;53.86
39449;BME280;25151;45.566;9.382;2023-07-08T15:54:53;100062.59;;;27.26;54.22
39449;BME280;25151;45.566;9.382;2023-07-08T15:57:20;100055.66;;;27.27;53.66
39449;BME280;25151;45.566;9.382;2023-07-08T16:03:18;100052.06;;;27.27;53.79
39449;BME280;25151;45.566;9.382;2023-07-08T16:09:09;100054.19;;;27.32;53.62
39449;BME280;25151;45.566;9.382;2023-07-08T16:11:37;100057.00;;;27.32;54.09
39449;BME280;25151;45.566;9.382;2023-07-08T16:14:04;100050.00;;;27.27;54.06
39449;BME280;25151;45.566;9.382;2023-07-08T16:16:34;100041.50;;;27.27;54.18
39449;BME280;25151;45.566;9.382;2023-07-08T16:19:04;100046.69;;;27.29;53.75
39449;BME280;25151;45.566;9.382;2023-07-08T16:21:31;100050.09;;;27.33;53.99
39449;BME280;25151;45.566;9.382;2023-07-08T16:23:59;100047.16;;;27.27;54.15
39449;BME280;25151;45.566;9.382;2023-07-08T16:26:28;100035.84;;;27.27;53.93
39449;BME280;25151;45.566;9.382;2023-07-08T16:28:56;100042.84;;;27.32;53.83
39449;BME280;25151;45.566;9.382;2023-07-08T16:31:25;100037.19;;;27.32;53.97
39449;BME280;25151;45.566;9.382;2023-07-08T16:37:24;100029.91;;;27.25;54.31
39449;BME280;25151;45.566;9.382;2023-07-08T16:39:51;100032.22;;;27.27;54.30
39449;BME280;25151;45.566;9.382;2023-07-08T16:42:21;100023.75;;;27.27;54.06
39449;BME280;25151;45.566;9.382;2023-07-08T16:44:48;100035.16;;;27.32;53.87